sensor_id;sensor_type;location;lat;lon;timestamp;pressure;altitude;pressure_sealevel;temperature;humidity
44044;BME280;29709;52.396;16.796;2023-07-13T00:01:41;101248.15;;;20.28;59.93
44044;BME280;29709;52.396;16.796;2023-07-13T00:04:55;101249.48;;;20.18;59.16
44044;BME280;29709;52.396;16.796;2023-07-13T00:08:09;101249.91;;;20.15;60.43
44044;BME280;29709;52.396;16.796;2023-07-13T00:11:24;101257.66;;;20.13;61.64
44044;BME280;29709;52.396;16.796;2023-07-13T00:14:37;101263.24;;;20.13;61.39
44044;BME280;29709;52.396;16.796;2023-07-13T00:17:52;101272.03;;;20.10;62.04
44044;BME280;29709;52.396;16.796;2023-07-13T00:21:05;101280.63;;;20.09;62.52
44044;BME280;29709;52.396;16.796;2023-07-13T00:24:18;101287.52;;;20.06;58.97
44044;BME280;29709;52.396;16.796;2023-07-13T00:27:37;101296.97;;;19.99;63.99
44044;BME280;29709;52.396;16.796;2023-07-13T00:30:50;101284.33;;;19.96;59.78
44044;BME280;29709;52.396;16.796;2023-07-13T00:34:03;101274.24;;;19.88;62.80
44044;BME280;29709;52.396;16.796;2023-07-13T00:37:17;101274.46;;;19.87;62.95
44044;BME280;29709;52.396;16.796;2023-07-13T00:40:30;101278.33;;;19.93;62.40
44044;BME280;29709;52.396;16.796;2023-07-13T00:43:43;101275.32;;;19.87;62.76
44044;BME280;29709;52.396;16.796;2023-07-13T00:46:56;101263.53;;;19.85;64.08
44044;BME280;29709;52.396;16.796;2023-07-13T00:50:14;101256.02;;;19.86;64.51
44044;BME280;29709;52.396;16.796;2023-07-13T00:53:29;101257.51;;;19.88;63.68
44044;BME280;29709;52.396;16.796;2023-07-13T00:56:45;101265.23;;;19.93;61.44
44044;BME280;29709;52.396;16.796;2023-07-13T01:00:03;101261.81;;;19.91;63.12
44044;BME280;29709;52.396;16.796;2023-07-13T01:03:23;101269.12;;;19.85;64.72
44044;BME280;29709;52.396;16.796;2023-07-13T01:06:37;101278.55;;;19.91;65.17
44044;BME280;29709;52.396;16.796;2023-07-13T01:09:52;101274.02;;;19.97;64.54
44044;BME280;29709;52.396;16.796;2023-07-13T01:13:07;101273.57;;;20.00;64.38
44044;BME280;29709;52.396;16.796;2023-07-13T01:16:27;101275.73;;;20.04;65.68
44044;BME280;29709;52.396;16.796;2023-07-13T01:19:44;101275.09;;;20.02;63.89
44044;BME280;29709;52.396;16.796;2023-07-13T01:22:57;101281.94;;;20.06;65.14
44044;BME280;29709;52.396;16.796;2023-07-13T01:26:12;101280.21;;;20.12;62.73
44044;BME280;29709;52.396;16.796;2023-07-13T01:29:25;101273.98;;;20.10;65.81
44044;BME280;29709;52.396;16.796;2023-07-13T01:32:38;101286.65;;;20.12;64.77
44044;BME280;29709;52.396;16.796;2023-07-13T01:35:54;101274.18;;;20.15;62.52
44044;BME280;29709;52.396;16.796;2023-07-13T01:39:10;101284.27;;;20.16;64.76
44044;BME280;29709;52.396;16.796;2023-07-13T01:42:23;101278.02;;;20.21;64.22
44044;BME280;29709;52.396;16.796;2023-07-13T01:45:37;101271.16;;;20.23;62.72
44044;BME280;29709;52.396;16.796;2023-07-13T01:48:50;101275.88;;;20.23;64.97
44044;BME280;29709;52.396;16.796;2023-07-13T01:52:05;101281.02;;;20.26;62.90
44044;BME280;29709;52.396;16.796;2023-07-13T01:55:19;101276.05;;;20.28;64.68
44044;BME280;29709;52.396;16.796;2023-07-13T01:58:33;101277.55;;;20.30;62.34
44044;BME280;29709;52.396;16.796;2023-07-13T02:01:46;101275.41;;;20.32;61.61
44044;BME280;29709;52.396;16.796;2023-07-13T02:04:59;101275.62;;;20.31;61.18
44044;BME280;29709;52.396;16.796;2023-07-13T02:08:15;101271.56;;;20.27;60.92
44044;BME280;29709;52.396;16.796;2023-07-13T02:11:28;101266.61;;;20.29;61.25
44044;BME280;29709;52.396;16.796;2023-07-13T02:14:45;101265.30;;;20.31;60.15
44044;BME280;29709;52.396;16.796;2023-07-13T02:17:59;101264.27;;;20.26;60.88
44044;BME280;29709;52.396;16.796;2023-07-13T02:21:12;101263.41;;;20.25;60.66
44044;BME280;29709;52.396;16.796;2023-07-13T02:24:25;101267.51;;;20.23;59.53
44044;BME280;29709;52.396;16.796;2023-07-13T02:27:38;101269.00;;;20.25;60.16
44044;BME280;29709;52.396;16.796;2023-07-13T02:30:51;101275.21;;;20.27;59.48
44044;BME280;29709;52.396;16.796;2023-07-13T02:34:04;101270.25;;;20.29;59.07
44044;BME280;29709;52.396;16.796;2023-07-13T02:37:18;101279.31;;;20.25;59.10
44044;BME280;29709;52.396;16.796;2023-07-13T02:40:31;101282.10;;;20.25;59.36
44044;BME280;29709;52.396;16.796;2023-07-13T02:43:46;101285.28;;;20.28;59.58
44044;BME280;29709;52.396;16.796;2023-07-13T02:46:59;101295.59;;;20.34;60.29
44044;BME280;29709;52.396;16.796;2023-07-13T02:50:12;101293.65;;;20.35;59.45
44044;BME280;29709;52.396;16.796;2023-07-13T02:53:25;101282.73;;;20.27;60.22
44044;BME280;29709;52.396;16.796;2023-07-13T02:56:39;101289.38;;;20.32;60.37
44044;BME280;29709;52.396;16.796;2023-07-13T02:59:53;101277.55;;;20.30;59.62
44044;BME280;29709;52.396;16.796;2023-07-13T03:03:07;101279.53;;;20.23;59.68
44044;BME280;29709;52.396;16.796;2023-07-13T03:06:20;101290.03;;;20.21;61.32
44044;BME280;29709;52.396;16.796;2023-07-13T03:09:35;101281.02;;;20.26;60.54
44044;BME280;29709;52.396;16.796;2023-07-13T03:12:49;101271.58;;;20.20;60.06
44044;BME280;29709;52.396;16.796;2023-07-13T03:16:02;101273.78;;;20.11;60.93
44044;BME280;29709;52.396;16.796;2023-07-13T03:19:16;101286.20;;;20.15;61.58
44044;BME280;29709;52.396;16.796;2023-07-13T03:22:29;101291.77;;;20.22;62.16
44044;BME280;29709;52.396;16.796;2023-07-13T03:25:42;101281.20;;;20.31;62.70
44044;BME280;29709;52.396;16.796;2023-07-13T03:28:57;101283.52;;;20.40;61.69
44044;BME280;29709;52.396;16.796;2023-07-13T03:32:11;101281.39;;;20.42;62.66
44044;BME280;29709;52.396;16.796;2023-07-13T03:35:24;101292.56;;;20.42;62.38
44044;BME280;29709;52.396;16.796;2023-07-13T03:38:37;101283.75;;;20.45;63.26
44044;BME280;29709;52.396;16.796;2023-07-13T03:41:50;101284.84;;;20.44;63.77
44044;BME280;29709;52.396;16.796;2023-07-13T03:45:04;101289.97;;;20.48;62.21
44044;BME280;29709;52.396;16.796;2023-07-13T03:48:17;101294.07;;;20.45;63.73
44044;BME280;29709;52.396;16.796;2023-07-13T03:51:31;101306.32;;;20.44;63.23
44044;BME280;29709;52.396;16.796;2023-07-13T03:54:44;101308.02;;;20.38;63.83
44044;BME280;29709;52.396;16.796;2023-07-13T03:58:00;101309.55;;;20.34;65.50
44044;BME280;29709;52.396;16.796;2023-07-13T04:01:16;101310.40;;;20.35;67.96
44044;BME280;29709;52.396;16.796;2023-07-13T04:04:29;101309.97;;;20.31;65.14
44044;BME280;29709;52.396;16.796;2023-07-13T04:07:43;101317.75;;;20.23;66.36
44044;BME280;29709;52.396;16.796;2023-07-13T04:10:58;101310.24;;;20.10;66.30
44044;BME280;29709;52.396;16.796;2023-07-13T04:14:11;101307.27;;;20.05;68.41
44044;BME280;29709;52.396;16.796;2023-07-13T04:17:24;101310.24;;;20.10;68.48
44044;BME280;29709;52.396;16.796;2023-07-13T04:20:37;101323.97;;;20.18;68.52
44044;BME280;29709;52.396;16.796;2023-07-13T04:23:50;101319.02;;;20.27;68.75
44044;BME280;29709;52.396;16.796;2023-07-13T04:27:04;101322.38;;;20.42;67.23
44044;BME280;29709;52.396;16.796;2023-07-13T04:30:17;101317.04;;;20.47;70.10
44044;BME280;29709;52.396;16.796;2023-07-13T04:33:31;101321.95;;;20.52;69.17
44044;BME280;29709;52.396;16.796;2023-07-13T04:36:44;101329.63;;;20.63;69.32
44044;BME280;29709;52.396;16.796;2023-07-13T04:39:57;101332.42;;;20.63;67.46
44044;BME280;29709;52.396;16.796;2023-07-13T04:43:11;101333.50;;;20.62;70.11
44044;BME280;29709;52.396;16.796;2023-07-13T04:46:24;101339.05;;;20.75;69.03
44044;BME280;29709;52.396;16.796;2023-07-13T04:49:37;101328.20;;;20.92;69.19
44044;BME280;29709;52.396;16.796;2023-07-13T04:52:51;101338.04;;;21.01;68.25
44044;BME280;29709;52.396;16.796;2023-07-13T04:56:04;101336.06;;;21.08;66.89
44044;BME280;29709;52.396;16.796;2023-07-13T04:59:17;101333.92;;;21.03;66.64
44044;BME280;29709;52.396;16.796;2023-07-13T05:02:30;101349.66;;;20.98;68.04
44044;BME280;29709;52.396;16.796;2023-07-13T05:05:54;101350.33;;;20.93;70.18
44044;BME280;29709;52.396;16.796;2023-07-13T05:09:07;101358.05;;;20.98;68.67
44044;BME280;29709;52.396;16.796;2023-07-13T05:12:20;101357.20;;;20.97;70.89
44044;BME280;29709;52.396;16.796;2023-07-13T05:15:34;101365.50;;;21.11;70.33
44044;BME280;29709;52.396;16.796;2023-07-13T05:18:47;101366.26;;;21.24;70.66
44044;BME280;29709;52.396;16.796;2023-07-13T05:22:00;101363.47;;;21.31;69.15
44044;BME280;29709;52.396;16.796;2023-07-13T05:25:14;101368.59;;;21.34;69.96
44044;BME280;29709;52.396;16.796;2023-07-13T05:28:28;101370.30;;;21.35;68.64
44044;BME280;29709;52.396;16.796;2023-07-13T05:31:41;101375.91;;;21.35;69.89
44044;BME280;29709;52.396;16.796;2023-07-13T05:34:54;101378.27;;;21.38;69.44
44044;BME280;29709;52.396;16.796;2023-07-13T05:38:08;101381.92;;;21.39;67.16
44044;BME280;29709;52.396;16.796;2023-07-13T05:41:21;101395.05;;;21.38;67.66
44044;BME280;29709;52.396;16.796;2023-07-13T05:44:34;101401.52;;;21.32;69.35
44044;BME280;29709;52.396;16.796;2023-07-13T05:47:48;101405.64;;;21.29;70.55
44044;BME280;29709;52.396;16.796;2023-07-13T05:51:01;101401.75;;;21.24;69.31
44044;BME280;29709;52.396;16.796;2023-07-13T05:54:15;101406.55;;;21.17;70.63
44044;BME280;29709;52.396;16.796;2023-07-13T05:57:28;101403.95;;;21.15;69.73
44044;BME280;29709;52.396;16.796;2023-07-13T06:00:41;101417.67;;;21.23;70.63
44044;BME280;29709;52.396;16.796;2023-07-13T06:03:54;101423.50;;;21.28;70.20
44044;BME280;29709;52.396;16.796;2023-07-13T06:07:07;101422.18;;;21.31;71.74
44044;BME280;29709;52.396;16.796;2023-07-13T06:10:20;101429.48;;;21.32;69.95
44044;BME280;29709;52.396;16.796;2023-07-13T06:13:33;101438.07;;;21.37;71.34
44044;BME280;29709;52.396;16.796;2023-07-13T06:16:47;101446.01;;;21.40;71.51
44044;BME280;29709;52.396;16.796;2023-07-13T06:20:00;101449.43;;;21.42;70.23
44044;BME280;29709;52.396;16.796;2023-07-13T06:23:13;101440.38;;;21.47;71.47
44044;BME280;29709;52.396;16.796;2023-07-13T06:26:26;101441.37;;;21.59;68.77
44044;BME280;29709;52.396;16.796;2023-07-13T06:29:40;101443.25;;;21.65;70.43
44044;BME280;29709;52.396;16.796;2023-07-13T06:32:54;101451.38;;;21.73;71.61
44044;BME280;29709;52.396;16.796;2023-07-13T06:36:08;101457.10;;;21.85;68.89
44044;BME280;29709;52.396;16.796;2023-07-13T06:39:22;101463.66;;;21.97;70.14
44044;BME280;29709;52.396;16.796;2023-07-13T06:42:35;101458.88;;;22.04;70.22
44044;BME280;29709;52.396;16.796;2023-07-13T06:45:48;101456.07;;;22.11;69.99
44044;BME280;29709;52.396;16.796;2023-07-13T06:49:03;101452.11;;;22.18;70.22
44044;BME280;29709;52.396;16.796;2023-07-13T06:52:16;101449.96;;;22.21;68.97
44044;BME280;29709;52.396;16.796;2023-07-13T06:55:29;101446.92;;;22.22;69.86
44044;BME280;29709;52.396;16.796;2023-07-13T06:58:43;101446.02;;;22.46;69.20
44044;BME280;29709;52.396;16.796;2023-07-13T07:01:56;101452.44;;;22.72;68.14
44044;BME280;29709;52.396;16.796;2023-07-13T07:05:09;101443.47;;;22.82;67.20
44044;BME280;29709;52.396;16.796;2023-07-13T07:08:22;101449.04;;;23.07;66.98
44044;BME280;29709;52.396;16.796;2023-07-13T07:11:35;101448.84;;;23.20;65.84
44044;BME280;29709;52.396;16.796;2023-07-13T07:14:48;101449.06;;;23.37;66.71
44044;BME280;29709;52.396;16.796;2023-07-13T07:18:02;101446.73;;;23.64;65.15
44044;BME280;29709;52.396;16.796;2023-07-13T07:21:15;101444.49;;;23.96;64.82
44044;BME280;29709;52.396;16.796;2023-07-13T07:24:28;101439.81;;;24.43;63.67
44044;BME280;29709;52.396;16.796;2023-07-13T07:27:41;101444.41;;;24.84;61.80
44044;BME280;29709;52.396;16.796;2023-07-13T07:30:56;101439.87;;;25.07;58.92
44044;BME280;29709;52.396;16.796;2023-07-13T07:34:10;101432.57;;;25.34;59.33
44044;BME280;29709;52.396;16.796;2023-07-13T07:37:23;101437.93;;;25.64;57.85
44044;BME280;29709;52.396;16.796;2023-07-13T07:40:37;101435.00;;;25.59;55.92
44044;BME280;29709;52.396;16.796;2023-07-13T07:43:51;101431.63;;;25.74;56.54
44044;BME280;29709;52.396;16.796;2023-07-13T07:47:04;101440.02;;;26.02;55.91
44044;BME280;29709;52.396;16.796;2023-07-13T07:50:17;101444.55;;;26.03;53.54
44044;BME280;29709;52.396;16.796;2023-07-13T07:53:32;101450.95;;;26.15;53.23
44044;BME280;29709;52.396;16.796;2023-07-13T07:56:45;101451.30;;;26.19;52.96
44044;BME280;29709;52.396;16.796;2023-07-13T07:59:59;101450.96;;;26.32;53.41
44044;BME280;29709;52.396;16.796;2023-07-13T08:03:12;101460.25;;;26.66;53.03
44044;BME280;29709;52.396;16.796;2023-07-13T08:06:25;101458.83;;;26.86;51.46
44044;BME280;29709;52.396;16.796;2023-07-13T08:09:38;101450.73;;;26.89;52.37
44044;BME280;29709;52.396;16.796;2023-07-13T08:12:51;101442.34;;;27.16;51.04
44044;BME280;29709;52.396;16.796;2023-07-13T08:16:05;101442.74;;;27.25;51.30
44044;BME280;29709;52.396;16.796;2023-07-13T08:19:19;101458.38;;;27.11;50.74
44044;BME280;29709;52.396;16.796;2023-07-13T08:22:32;101446.02;;;26.78;50.41
44044;BME280;29709;52.396;16.796;2023-07-13T08:25:53;101455.29;;;26.73;51.07
44044;BME280;29709;52.396;16.796;2023-07-13T08:29:06;101446.39;;;26.82;50.89
44044;BME280;29709;52.396;16.796;2023-07-13T08:32:54;101449.97;;;26.77;50.75
44044;BME280;29709;52.396;16.796;2023-07-13T08:36:07;101460.53;;;26.87;51.54
44044;BME280;29709;52.396;16.796;2023-07-13T08:39:20;101459.95;;;26.85;51.29
44044;BME280;29709;52.396;16.796;2023-07-13T08:42:39;101460.02;;;26.68;50.63
44044;BME280;29709;52.396;16.796;2023-07-13T08:45:57;101461.72;;;26.69;51.46
44044;BME280;29709;52.396;16.796;2023-07-13T08:49:19;101457.43;;;26.66;51.65
44044;BME280;29709;52.396;16.796;2023-07-13T08:52:39;101447.79;;;26.62;51.57
44044;BME280;29709;52.396;16.796;2023-07-13T08:55:57;101431.36;;;26.37;50.95
44044;BME280;29709;52.396;16.796;2023-07-13T08:59:14;101440.74;;;26.26;51.80
44044;BME280;29709;52.396;16.796;2023-07-13T09:02:46;101446.95;;;26.28;51.67
44044;BME280;29709;52.396;16.796;2023-07-13T09:05:59;101445.74;;;26.24;52.24
44044;BME280;29709;52.396;16.796;2023-07-13T09:12:57;101456.59;;;26.32;52.96
44044;BME280;29709;52.396;16.796;2023-07-13T09:16:07;101455.41;;;26.45;51.80
44044;BME280;29709;52.396;16.796;2023-07-13T09:19:28;101456.35;;;26.51;51.58
44044;BME280;29709;52.396;16.796;2023-07-13T09:22:43;101457.21;;;26.51;51.71
44044;BME280;29709;52.396;16.796;2023-07-13T09:26:11;101456.24;;;26.62;50.96
44044;BME280;29709;52.396;16.796;2023-07-13T09:29:28;101451.88;;;26.71;50.64
44044;BME280;29709;52.396;16.796;2023-07-13T09:32:47;101454.98;;;26.92;50.98
44044;BME280;29709;52.396;16.796;2023-07-13T09:39:30;101445.72;;;27.40;49.40
44044;BME280;29709;52.396;16.796;2023-07-13T09:42:46;101445.51;;;27.69;49.87
44044;BME280;29709;52.396;16.796;2023-07-13T09:46:00;101455.76;;;27.75;47.53
44044;BME280;29709;52.396;16.796;2023-07-13T09:49:13;101453.03;;;27.85;47.89
44044;BME280;29709;52.396;16.796;2023-07-13T09:52:29;101451.15;;;27.96;47.08
44044;BME280;29709;52.396;16.796;2023-07-13T09:55:47;101443.87;;;27.73;47.26
44044;BME280;29709;52.396;16.796;2023-07-13T09:59:00;101440.64;;;27.91;47.62
44044;BME280;29709;52.396;16.796;2023-07-13T10:02:29;101447.68;;;28.21;47.23
44044;BME280;29709;52.396;16.796;2023-07-13T10:05:44;101457.50;;;28.13;46.20
44044;BME280;29709;52.396;16.796;2023-07-13T10:08:58;101457.83;;;28.49;47.24
44044;BME280;29709;52.396;16.796;2023-07-13T10:12:15;101451.66;;;28.99;45.75
44044;BME280;29709;52.396;16.796;2023-07-13T10:15:28;101459.26;;;28.93;43.54
44044;BME280;29709;52.396;16.796;2023-07-13T10:18:51;101458.61;;;28.86;44.04
44044;BME280;29709;52.396;16.796;2023-07-13T10:25:34;101458.82;;;28.69;44.08
44044;BME280;29709;52.396;16.796;2023-07-13T10:28:53;101467.79;;;28.56;44.91
44044;BME280;29709;52.396;16.796;2023-07-13T10:32:10;101462.30;;;28.44;44.63
44044;BME280;29709;52.396;16.796;2023-07-13T10:35:29;101461.59;;;28.27;44.89
44044;BME280;29709;52.396;16.796;2023-07-13T10:38:45;101461.88;;;27.94;45.90
44044;BME280;29709;52.396;16.796;2023-07-13T10:42:04;101467.87;;;28.02;45.61
44044;BME280;29709;52.396;16.796;2023-07-13T10:45:22;101464.44;;;27.95;45.69
44044;BME280;29709;52.396;16.796;2023-07-13T10:48:37;101452.58;;;27.98;46.05
44044;BME280;29709;52.396;16.796;2023-07-13T10:51:52;101457.65;;;27.96;46.02
44044;BME280;29709;52.396;16.796;2023-07-13T10:58:34;101450.35;;;28.32;45.84
44044;BME280;29709;52.396;16.796;2023-07-13T11:01:57;101457.19;;;28.36;45.38
44044;BME280;29709;52.396;16.796;2023-07-13T11:05:35;101453.22;;;28.05;44.86
44044;BME280;29709;52.396;16.796;2023-07-13T11:08:52;101461.70;;;27.78;44.99
44044;BME280;29709;52.396;16.796;2023-07-13T11:12:25;101460.21;;;27.71;45.58
44044;BME280;29709;52.396;16.796;2023-07-13T11:15:43;101462.29;;;27.80;45.60
44044;BME280;29709;52.396;16.796;2023-07-13T11:22:24;101464.16;;;27.97;44.60
44044;BME280;29709;52.396;16.796;2023-07-13T11:25:38;101463.91;;;28.03;44.30
44044;BME280;29709;52.396;16.796;2023-07-13T11:28:52;101463.40;;;28.06;44.55
44044;BME280;29709;52.396;16.796;2023-07-13T11:35:30;101462.55;;;28.06;37.32
44044;BME280;29709;52.396;16.796;2023-07-13T11:38:55;101447.30;;;28.07;39.99
44044;BME280;29709;52.396;16.796;2023-07-13T11:42:12;101461.45;;;28.12;38.94
44044;BME280;29709;52.396;16.796;2023-07-13T11:45:27;101451.82;;;28.08;38.00
44044;BME280;29709;52.396;16.796;2023-07-13T11:48:46;101455.37;;;28.25;38.11
44044;BME280;29709;52.396;16.796;2023-07-13T11:52:01;101458.91;;;28.42;37.50
44044;BME280;29709;52.396;16.796;2023-07-13T11:55:20;101447.23;;;28.76;35.84
44044;BME280;29709;52.396;16.796;2023-07-13T11:58:34;101439.50;;;29.03;35.14
44044;BME280;29709;52.396;16.796;2023-07-13T12:01:51;101441.61;;;29.28;34.36
44044;BME280;29709;52.396;16.796;2023-07-13T12:05:09;101443.55;;;29.28;33.40
44044;BME280;29709;52.396;16.796;2023-07-13T12:08:25;101436.47;;;29.25;34.44
44044;BME280;29709;52.396;16.796;2023-07-13T12:11:41;101439.78;;;29.02;34.85
44044;BME280;29709;52.396;16.796;2023-07-13T12:14:55;101436.67;;;28.98;35.18
44044;BME280;29709;52.396;16.796;2023-07-13T12:18:14;101449.68;;;28.99;32.47
44044;BME280;29709;52.396;16.796;2023-07-13T12:21:31;101448.07;;;29.19;32.32
44044;BME280;29709;52.396;16.796;2023-07-13T12:24:47;101440.28;;;29.51;32.41
44044;BME280;29709;52.396;16.796;2023-07-13T12:34:53;101452.05;;;29.28;30.64
44044;BME280;29709;52.396;16.796;2023-07-13T12:38:10;101441.56;;;29.23;31.72
44044;BME280;29709;52.396;16.796;2023-07-13T12:41:23;101445.25;;;29.24;32.32
44044;BME280;29709;52.396;16.796;2023-07-13T12:44:40;101440.67;;;29.13;32.83
44044;BME280;29709;52.396;16.796;2023-07-13T12:47:57;101437.29;;;29.11;33.04
44044;BME280;29709;52.396;16.796;2023-07-13T12:51:13;101439.59;;;29.19;32.37
44044;BME280;29709;52.396;16.796;2023-07-13T12:54:28;101440.72;;;29.23;31.98
44044;BME280;29709;52.396;16.796;2023-07-13T13:01:05;101434.80;;;29.35;31.29
44044;BME280;29709;52.396;16.796;2023-07-13T13:04:19;101439.72;;;29.54;30.85
44044;BME280;29709;52.396;16.796;2023-07-13T13:07:35;101433.52;;;29.88;30.51
44044;BME280;29709;52.396;16.796;2023-07-13T13:10:51;101439.26;;;30.13;30.62
44044;BME280;29709;52.396;16.796;2023-07-13T13:14:04;101432.72;;;30.08;28.40
44044;BME280;29709;52.396;16.796;2023-07-13T13:17:20;101417.70;;;30.12;29.38
44044;BME280;29709;52.396;16.796;2023-07-13T13:20:34;101425.89;;;30.29;29.16
44044;BME280;29709;52.396;16.796;2023-07-13T13:23:47;101417.92;;;30.52;29.14
44044;BME280;29709;52.396;16.796;2023-07-13T13:27:04;101420.47;;;30.58;29.40
44044;BME280;29709;52.396;16.796;2023-07-13T13:30:19;101412.53;;;30.50;28.44
44044;BME280;29709;52.396;16.796;2023-07-13T13:33:35;101417.39;;;30.29;28.58
44044;BME280;29709;52.396;16.796;2023-07-13T13:36:51;101423.64;;;30.26;27.22
44044;BME280;29709;52.396;16.796;2023-07-13T13:40:14;101425.35;;;30.07;26.82
44044;BME280;29709;52.396;16.796;2023-07-13T13:43:28;101434.14;;;30.26;27.79
44044;BME280;29709;52.396;16.796;2023-07-13T13:46:44;101432.73;;;30.23;27.31
44044;BME280;29709;52.396;16.796;2023-07-13T13:49:58;101444.91;;;30.18;27.88
44044;BME280;29709;52.396;16.796;2023-07-13T13:53:13;101446.91;;;30.13;26.83
44044;BME280;29709;52.396;16.796;2023-07-13T13:56:27;101443.75;;;30.04;28.59
44044;BME280;29709;52.396;16.796;2023-07-13T13:59:40;101436.40;;;30.18;28.38
44044;BME280;29709;52.396;16.796;2023-07-13T14:02:53;101439.49;;;30.32;27.27
44044;BME280;29709;52.396;16.796;2023-07-13T14:06:15;101437.54;;;30.33;26.81
44044;BME280;29709;52.396;16.796;2023-07-13T14:09:28;101445.16;;;30.42;27.80
44044;BME280;29709;52.396;16.796;2023-07-13T14:12:43;101451.12;;;30.41;27.11
44044;BME280;29709;52.396;16.796;2023-07-13T14:16:00;101435.25;;;30.40;27.69
44044;BME280;29709;52.396;16.796;2023-07-13T14:19:14;101439.80;;;30.46;27.39
44044;BME280;29709;52.396;16.796;2023-07-13T14:22:27;101438.38;;;30.43;27.83
44044;BME280;29709;52.396;16.796;2023-07-13T14:25:42;101440.07;;;30.39;28.58
44044;BME280;29709;52.396;16.796;2023-07-13T14:28:57;101445.45;;;30.46;28.52
44044;BME280;29709;52.396;16.796;2023-07-13T14:32:12;101447.47;;;30.25;28.84
44044;BME280;29709;52.396;16.796;2023-07-13T14:35:25;101449.16;;;30.16;28.53
44044;BME280;29709;52.396;16.796;2023-07-13T14:38:38;101444.91;;;30.08;29.16
44044;BME280;29709;52.396;16.796;2023-07-13T14:41:56;101439.20;;;29.98;28.80
44044;BME280;29709;52.396;16.796;2023-07-13T14:45:14;101441.77;;;29.95;28.66
44044;BME280;29709;52.396;16.796;2023-07-13T14:48:28;101446.30;;;30.06;29.13
44044;BME280;29709;52.396;16.796;2023-07-13T14:51:41;101451.69;;;30.02;28.10
44044;BME280;29709;52.396;16.796;2023-07-13T14:54:55;101448.01;;;30.02;28.63
44044;BME280;29709;52.396;16.796;2023-07-13T14:58:10;101442.59;;;29.90;27.89
44044;BME280;29709;52.396;16.796;2023-07-13T15:01:23;101445.42;;;29.90;28.23
44044;BME280;29709;52.396;16.796;2023-07-13T15:04:37;101439.75;;;29.90;28.13
44044;BME280;29709;52.396;16.796;2023-07-13T15:07:51;101432.96;;;30.01;28.73
44044;BME280;29709;52.396;16.796;2023-07-13T15:11:09;101449.98;;;29.96;27.90
44044;BME280;29709;52.396;16.796;2023-07-13T15:14:26;101445.72;;;29.94;28.22
44044;BME280;29709;52.396;16.796;2023-07-13T15:17:44;101440.05;;;29.94;28.70
44044;BME280;29709;52.396;16.796;2023-07-13T15:20:59;101443.44;;;29.90;28.34
44044;BME280;29709;52.396;16.796;2023-07-13T15:24:16;101433.52;;;29.83;28.85
44044;BME280;29709;52.396;16.796;2023-07-13T15:27:30;101444.30;;;29.86;28.75
44044;BME280;29709;52.396;16.796;2023-07-13T15:30:46;101436.35;;;29.73;27.39
44044;BME280;29709;52.396;16.796;2023-07-13T15:34:01;101435.20;;;29.69;28.84
44044;BME280;29709;52.396;16.796;2023-07-13T15:37:15;101448.49;;;29.53;28.60
44044;BME280;29709;52.396;16.796;2023-07-13T15:40:29;101438.23;;;29.47;28.92
44044;BME280;29709;52.396;16.796;2023-07-13T15:43:42;101441.89;;;29.37;29.16
44044;BME280;29709;52.396;16.796;2023-07-13T15:46:55;101437.59;;;29.24;29.43
44044;BME280;29709;52.396;16.796;2023-07-13T15:50:22;101438.45;;;29.20;29.67
44044;BME280;29709;52.396;16.796;2023-07-13T15:53:33;101445.77;;;29.11;29.72
44044;BME280;29709;52.396;16.796;2023-07-13T15:56:52;101446.66;;;29.26;30.28
44044;BME280;29709;52.396;16.796;2023-07-13T16:03:32;101438.77;;;29.33;29.88
44044;BME280;29709;52.396;16.796;2023-07-13T16:06:46;101441.28;;;29.25;29.52
44044;BME280;29709;52.396;16.796;2023-07-13T16:09:59;101437.03;;;29.22;30.54
44044;BME280;29709;52.396;16.796;2023-07-13T16:13:16;101429.36;;;29.18;30.27
44044;BME280;29709;52.396;16.796;2023-07-13T16:16:34;101447.48;;;29.17;30.37
44044;BME280;29709;52.396;16.796;2023-07-13T16:19:47;101445.72;;;29.00;30.14
44044;BME280;29709;52.396;16.796;2023-07-13T16:23:00;101446.95;;;28.72;30.33
44044;BME280;29709;52.396;16.796;2023-07-13T16:26:25;101449.70;;;28.57;31.09
44044;BME280;29709;52.396;16.796;2023-07-13T16:29:39;101455.51;;;28.40;31.39
44044;BME280;29709;52.396;16.796;2023-07-13T16:32:53;101454.93;;;28.38;31.30
44044;BME280;29709;52.396;16.796;2023-07-13T16:36:11;101459.73;;;28.38;31.53
44044;BME280;29709;52.396;16.796;2023-07-13T16:39:28;101463.41;;;28.38;31.54
44044;BME280;29709;52.396;16.796;2023-07-13T16:42:42;101464.55;;;28.42;31.61
44044;BME280;29709;52.396;16.796;2023-07-13T16:45:57;101452.10;;;28.38;31.90
44044;BME280;29709;52.396;16.796;2023-07-13T16:49:23;101454.93;;;28.38;31.96
44044;BME280;29709;52.396;16.796;2023-07-13T16:52:37;101459.55;;;28.23;31.56
44044;BME280;29709;52.396;16.796;2023-07-13T16:55:50;101457.29;;;28.19;31.83
44044;BME280;29709;52.396;16.796;2023-07-13T16:59:17;101459.05;;;28.26;32.00
44044;BME280;29709;52.396;16.796;2023-07-13T17:02:34;101455.59;;;28.18;31.66
44044;BME280;29709;52.396;16.796;2023-07-13T17:05:48;101460.30;;;28.08;31.97
44044;BME280;29709;52.396;16.796;2023-07-13T17:09:05;101461.60;;;27.95;32.00
44044;BME280;29709;52.396;16.796;2023-07-13T17:12:21;101469.13;;;27.84;32.40
44044;BME280;29709;52.396;16.796;2023-07-13T17:15:36;101467.09;;;27.80;32.12
44044;BME280;29709;52.396;16.796;2023-07-13T17:18:50;101465.93;;;27.76;32.81
44044;BME280;29709;52.396;16.796;2023-07-13T17:22:04;101467.32;;;27.73;32.32